createdAt,value
2016-04-18T00:00:18.583Z,90.57
2016-04-18T00:01:18.851Z,90.76
2016-04-18T00:02:18.588Z,90.85
2016-04-18T00:03:18.591Z,91.04
2016-04-18T00:04:18.593Z,91.14
2016-04-18T00:05:18.582Z,91.14
2016-04-18T00:06:18.584Z,91.14
2016-04-18T00:07:18.587Z,91.52
2016-04-18T00:08:18.574Z,91.33
2016-04-18T00:09:18.576Z,91.04
2016-04-18T00:10:18.579Z,91.52
2016-04-18T00:11:18.566Z,91.33
2016-04-18T00:12:18.584Z,91.33
2016-04-18T00:13:18.571Z,91.33
2016-04-18T00:14:18.589Z,91.33
2016-04-18T00:15:18.598Z,91.42
2016-04-18T00:16:18.643Z,91.14
2016-04-18T00:17:18.689Z,91.42
2016-04-18T00:18:18.735Z,91.33
2016-04-18T00:19:18.781Z,91.71
2016-04-18T00:20:18.797Z,91.99
2016-04-18T00:21:18.659Z,91.89
2016-04-18T00:22:18.833Z,91.71
2016-04-18T00:23:18.835Z,91.99
2016-04-18T00:24:18.870Z,91.99
2016-04-18T00:25:18.867Z,92.37
2016-04-18T00:26:18.875Z,91.8
2016-04-18T00:27:18.884Z,91.99
2016-04-18T00:28:18.877Z,91.61
2016-04-18T00:29:18.886Z,91.8
2016-04-18T00:30:18.892Z,92.18
2016-04-18T00:31:18.897Z,92.47
2016-04-18T00:32:18.901Z,92.47
2016-04-18T00:33:18.906Z,92.47
2016-04-18T00:34:18.910Z,92.56
2016-04-18T00:35:18.914Z,92.18
2016-04-18T00:36:18.902Z,91.99
2016-04-18T00:37:18.889Z,92.18
2016-04-18T00:38:18.893Z,92.18
2016-04-18T00:39:18.740Z,92.18
2016-04-18T00:40:18.899Z,92.37
2016-04-18T00:41:18.902Z,92.56
2016-04-18T00:42:18.906Z,92.28
2016-04-18T00:43:18.909Z,92.37
2016-04-18T00:44:18.897Z,92.66
2016-04-18T00:45:18.900Z,92.09
2016-04-18T00:46:18.902Z,92.18
2016-04-18T00:47:18.905Z,93.04
2016-04-18T00:48:18.907Z,92.66
2016-04-18T00:49:18.895Z,92.85
2016-04-18T00:50:18.898Z,92.75
2016-04-18T00:51:18.916Z,92.94
2016-04-18T00:52:18.903Z,92.85
2016-04-18T00:53:18.905Z,92.75
2016-04-18T00:54:18.893Z,93.04
2016-04-18T00:55:18.896Z,92.85
2016-04-18T00:56:18.899Z,92.75
2016-04-18T00:57:18.901Z,92.85
2016-04-18T00:58:18.904Z,92.85
2016-04-18T00:59:18.891Z,92.85
2016-04-18T01:00:18.894Z,93.13
2016-04-18T01:01:18.896Z,92.94
2016-04-18T01:02:18.899Z,92.75
2016-04-18T01:03:18.901Z,92.56
2016-04-18T01:04:18.888Z,92.66
2016-04-18T01:05:18.907Z,92.56
2016-04-18T01:06:18.894Z,93.04
2016-04-18T01:07:18.896Z,92.37
2016-04-18T01:08:18.899Z,92.37
2016-04-18T01:09:18.886Z,92.37
2016-04-18T01:10:18.904Z,92.28
2016-04-18T01:11:18.892Z,92.18
2016-04-18T01:12:18.910Z,92.28
2016-04-18T01:13:18.897Z,92.47
2016-04-18T01:14:18.900Z,92.18
2016-04-18T01:15:18.886Z,92.18
2016-04-18T01:16:18.889Z,92.18
2016-04-18T01:17:18.892Z,92.09
2016-04-18T01:18:18.894Z,92.09
2016-04-18T01:19:18.882Z,92.47
2016-04-18T01:20:18.900Z,92.56
2016-04-18T01:21:18.902Z,92.47
2016-04-18T01:22:18.890Z,92.56
2016-04-18T01:23:18.892Z,92.37
2016-04-18T01:24:18.879Z,92.37
2016-04-18T01:25:18.898Z,92.37
2016-04-18T01:26:18.886Z,92.09
2016-04-18T01:27:18.887Z,92.37
2016-04-18T01:28:18.891Z,92.56
2016-04-18T01:29:18.893Z,92.47
2016-04-18T01:30:18.880Z,92.37
2016-04-18T01:31:18.899Z,92.18
2016-04-18T01:32:18.885Z,92.37
2016-04-18T01:33:18.888Z,92.09
2016-04-18T01:34:18.891Z,92.18
2016-04-18T01:35:18.879Z,92.18
2016-04-18T01:36:18.881Z,92.75
2016-04-18T01:37:18.899Z,92.94
2016-04-18T01:38:18.886Z,92.94
2016-04-18T01:39:18.889Z,92.75
2016-04-18T01:40:18.891Z,93.04
2016-04-18T01:41:18.895Z,92.85
2016-04-18T01:42:18.881Z,92.94
2016-04-18T01:43:18.868Z,92.85
2016-04-18T01:44:18.871Z,93.04
2016-04-18T01:45:18.874Z,92.56
2016-04-18T01:46:18.876Z,92.66
2016-04-18T01:47:18.895Z,92.75
2016-04-18T01:48:18.881Z,92.75
2016-04-18T01:49:18.884Z,92.94
2016-04-18T01:50:18.871Z,93.04
2016-04-18T01:51:18.874Z,92.75
2016-04-18T01:52:18.877Z,92.75
2016-04-18T01:53:18.880Z,93.04
2016-04-18T01:54:18.944Z,92.47
2016-04-18T01:55:18.885Z,92.85
2016-04-18T01:56:18.888Z,92.85
2016-04-18T01:57:18.891Z,92.75
2016-04-18T01:58:18.877Z,92.56
2016-04-18T01:59:18.864Z,92.56
2016-04-18T02:00:18.882Z,92.85
2016-04-18T02:01:18.869Z,92.85
2016-04-18T02:02:18.888Z,92.56
2016-04-18T02:03:18.874Z,93.04
2016-04-18T02:04:18.878Z,92.85
2016-04-18T02:05:18.865Z,93.04
2016-04-18T02:06:18.867Z,92.85
2016-04-18T02:07:18.870Z,92.94
2016-04-18T02:08:18.874Z,92.85
2016-04-18T02:09:18.938Z,92.85
2016-04-18T02:10:18.878Z,92.85
2016-04-18T02:11:18.881Z,93.04
2016-04-18T02:12:18.868Z,92.75
2016-04-18T02:13:18.871Z,92.94
2016-04-18T02:14:19.014Z,92.94
2016-04-18T02:15:18.876Z,92.85
2016-04-18T02:16:18.864Z,93.04
2016-04-18T02:17:18.866Z,92.75
2016-04-18T02:18:18.869Z,92.94
2016-04-18T02:19:18.872Z,92.85
2016-04-18T02:20:18.890Z,92.85
2016-04-18T02:21:18.877Z,92.85
2016-04-18T02:22:18.864Z,93.04
2016-04-18T02:23:18.866Z,92.85
2016-04-18T02:24:18.869Z,92.94
2016-04-18T02:25:18.855Z,92.85
2016-04-18T02:26:18.859Z,92.94
2016-04-18T02:27:18.877Z,92.56
2016-04-18T02:28:18.880Z,92.85
2016-04-18T02:29:18.867Z,92.66
2016-04-18T02:30:18.854Z,93.04
2016-04-18T02:31:18.872Z,92.85
2016-04-18T02:32:18.860Z,92.94
2016-04-18T02:33:18.862Z,92.75
2016-04-18T02:34:18.865Z,92.8
2016-04-18T02:35:18.868Z,92.75
2016-04-18T02:36:18.870Z,92.85
2016-04-18T02:37:18.857Z,93.13
2016-04-18T02:38:18.875Z,93.04
2016-04-18T02:39:18.879Z,92.85
2016-04-18T02:40:18.866Z,93.04
2016-04-18T02:41:18.852Z,92.85
2016-04-18T02:42:18.855Z,92.18
2016-04-18T02:43:18.857Z,92.56
2016-04-18T02:44:18.859Z,92.75
2016-04-18T02:45:18.862Z,92.94
2016-04-18T02:46:18.850Z,92.94
2016-04-18T02:47:18.868Z,93.13
2016-04-18T02:48:18.855Z,92.75
2016-04-18T02:49:18.858Z,92.75
2016-04-18T02:50:18.861Z,92.75
2016-04-18T02:51:18.848Z,92.85
2016-04-18T02:52:18.850Z,93.04
2016-04-18T02:53:18.853Z,92.85
2016-04-18T02:54:19.091Z,92.66
2016-04-18T02:55:18.859Z,92.85
2016-04-18T02:56:18.846Z,92.85
2016-04-18T02:57:18.849Z,92.75
2016-04-18T02:58:18.851Z,92.66
2016-04-18T02:59:18.855Z,92.66
2016-04-18T03:00:18.856Z,92.66
2016-04-18T03:01:18.860Z,92.66
2016-04-18T03:02:18.846Z,92.47
2016-04-18T03:03:18.849Z,92.75
2016-04-18T03:04:18.851Z,92.56
2016-04-18T03:05:18.838Z,92.94
2016-04-18T03:06:19.201Z,93.23
2016-04-18T03:07:18.844Z,93.41
2016-04-18T03:08:18.847Z,93.13
2016-04-18T03:09:18.741Z,93.18
2016-04-18T03:10:18.852Z,93.13
2016-04-18T03:11:18.855Z,93.13
2016-04-18T03:12:18.842Z,93.23
2016-04-18T03:13:18.845Z,93.13
2016-04-18T03:14:18.848Z,93.04
2016-04-18T03:15:18.851Z,93.41
2016-04-18T03:16:18.837Z,93.32
2016-04-18T03:17:18.840Z,93.13
2016-04-18T03:18:18.859Z,93.04
2016-04-18T03:19:18.845Z,93.32
2016-04-18T03:20:18.848Z,93.23
2016-04-18T03:21:18.850Z,93.32
2016-04-18T03:22:18.853Z,93.23
2016-04-18T03:23:18.840Z,93.23
2016-04-18T03:24:18.875Z,93.23
2016-04-18T03:25:18.845Z,93.23
2016-04-18T03:26:18.848Z,93.27
2016-04-18T03:27:18.835Z,93.13
2016-04-18T03:28:18.838Z,93.04
2016-04-18T03:29:18.840Z,92.56
2016-04-18T03:30:18.858Z,93.04
2016-04-18T03:31:18.830Z,92.18
2016-04-18T03:32:18.833Z,92.47
2016-04-18T03:33:18.852Z,91.89
2016-04-18T03:34:18.838Z,91.99
2016-04-18T03:35:18.826Z,92.18
2016-04-18T03:36:18.828Z,92.28
2016-04-18T03:37:18.831Z,92.37
2016-04-18T03:38:18.834Z,92.66
2016-04-18T03:39:18.946Z,92.37
2016-04-18T03:40:18.840Z,91.89
2016-04-18T03:41:18.842Z,91.42
2016-04-18T03:42:18.829Z,91.04
2016-04-18T03:43:18.832Z,91.52
2016-04-18T03:44:18.834Z,91.61
2016-04-18T03:45:18.853Z,91.33
2016-04-18T03:46:18.823Z,91.42
2016-04-18T03:47:18.827Z,90.57
2016-04-18T03:48:18.845Z,90.85
2016-04-18T03:49:18.832Z,91.14
2016-04-18T03:50:18.834Z,90.95
2016-04-18T03:51:18.822Z,90.47
2016-04-18T03:52:18.840Z,90.57
2016-04-18T03:53:18.827Z,90.28
2016-04-18T03:54:18.830Z,90.19
2016-04-18T03:55:18.816Z,90.47
2016-04-18T03:56:18.835Z,89.72
2016-04-18T03:57:18.822Z,89.81
2016-04-18T03:58:18.825Z,89.53
2016-04-18T03:59:18.844Z,89.9
2016-04-18T04:00:18.830Z,90
2016-04-18T04:01:18.833Z,90
2016-04-18T04:02:18.836Z,89.43
2016-04-18T04:03:18.823Z,89.72
2016-04-18T04:04:18.825Z,89.62
2016-04-18T04:05:18.828Z,89.62
2016-04-18T04:06:18.815Z,89.43
2016-04-18T04:07:18.818Z,89.43
2016-04-18T04:08:18.821Z,89.72
2016-04-18T04:09:18.823Z,89.53
2016-04-18T04:10:18.826Z,89.43
2016-04-18T04:11:18.813Z,89.53
2016-04-18T04:12:18.816Z,89.33
2016-04-18T04:13:18.818Z,89.62
2016-04-18T04:14:18.821Z,89.33
2016-04-18T04:15:18.824Z,89.62
2016-04-18T04:16:18.826Z,89.72
2016-04-18T04:17:18.829Z,89.62
2016-04-18T04:18:18.817Z,89.58
2016-04-18T04:19:18.819Z,89.53
2016-04-18T04:20:18.822Z,89.67
2016-04-18T04:21:18.808Z,89.53
2016-04-18T04:22:18.812Z,90
2016-04-18T04:23:18.814Z,89.81
2016-04-18T04:24:18.817Z,89.62
2016-04-18T04:25:18.820Z,89.81
2016-04-18T04:26:18.822Z,89.9
2016-04-18T04:27:18.825Z,90.47
2016-04-18T04:28:18.811Z,90.19
2016-04-18T04:29:18.815Z,90.38
2016-04-18T04:30:18.817Z,90.28
2016-04-18T04:31:18.836Z,90.38
2016-04-18T04:32:18.807Z,90.57
2016-04-18T04:33:18.810Z,90.57
2016-04-18T04:34:18.813Z,90.76
2016-04-18T04:35:18.815Z,90.47
2016-04-18T04:36:18.818Z,90.38
2016-04-18T04:37:18.820Z,90.57
2016-04-18T04:38:18.807Z,90.57
2016-04-18T04:39:18.810Z,90.47
2016-04-18T04:40:18.813Z,90.76
2016-04-18T04:41:18.816Z,90.47
2016-04-18T04:42:18.802Z,90.66
2016-04-18T04:43:18.805Z,90.47
2016-04-18T04:44:18.807Z,90.47
2016-04-18T04:45:18.810Z,90.57
2016-04-18T04:46:18.812Z,90.57
2016-04-18T04:47:18.814Z,90.57
2016-04-18T04:48:18.802Z,89.53
2016-04-18T04:49:18.836Z,89.43
2016-04-18T04:50:18.808Z,89.53
2016-04-18T04:51:18.811Z,89.43
2016-04-18T04:52:18.797Z,89.62
2016-04-18T04:53:18.800Z,88.76
2016-04-18T04:54:18.803Z,88.67
2016-04-18T04:55:18.821Z,89.05
2016-04-18T04:56:18.808Z,88.67
2016-04-18T04:57:18.796Z,89.14
2016-04-18T04:58:18.798Z,88.67
2016-04-18T04:59:18.801Z,88.76
2016-04-18T05:00:18.804Z,88.29
2016-04-18T05:01:18.806Z,88.95
2016-04-18T05:02:18.809Z,88.48
2016-04-18T05:03:18.795Z,88.29
2016-04-18T05:04:18.798Z,88.67
2016-04-18T05:05:18.801Z,88.39
2016-04-18T05:06:18.804Z,88.76
2016-04-18T05:07:18.807Z,88.57
2016-04-18T05:08:18.809Z,88.86
2016-04-18T05:09:18.796Z,88.48
2016-04-18T05:10:18.798Z,88.48
2016-04-18T05:11:18.801Z,88.39
2016-04-18T05:12:18.789Z,88.67
2016-04-18T05:13:18.806Z,88.67
2016-04-18T05:14:18.794Z,88.86
2016-04-18T05:15:18.797Z,88.67
2016-04-18T05:16:18.800Z,88.48
2016-04-18T05:17:18.802Z,88.67
2016-04-18T05:18:18.805Z,88.57
2016-04-18T05:19:18.807Z,88.95
2016-04-18T05:20:18.794Z,88.67
2016-04-18T05:21:18.797Z,88.39
2016-04-18T05:22:18.784Z,88.76
2016-04-18T05:23:18.786Z,88.95
2016-04-18T05:24:18.789Z,88.76
2016-04-18T05:25:18.792Z,88.29
2016-04-18T05:26:18.794Z,88.67
2016-04-18T05:27:18.829Z,88.67
2016-04-18T05:28:18.784Z,88.39
2016-04-18T05:29:18.787Z,88.29
2016-04-18T05:30:18.780Z,88.29
2016-04-18T05:31:18.783Z,88.48
2016-04-18T05:32:18.817Z,88.1
2016-04-18T05:33:18.788Z,88.1
2016-04-18T05:34:18.791Z,88.1
2016-04-18T05:35:18.793Z,88.39
2016-04-18T05:36:18.780Z,88.39
2016-04-18T05:37:18.783Z,88.48
2016-04-18T05:38:18.786Z,88.39
2016-04-18T05:39:18.789Z,88.29
2016-04-18T05:40:18.791Z,88.39
2016-04-18T05:41:18.779Z,88.48
2016-04-18T05:42:18.796Z,87.82
2016-04-18T05:43:18.784Z,87.53
2016-04-18T05:44:18.770Z,87.82
2016-04-18T05:45:18.773Z,87.82
2016-04-18T05:46:18.792Z,87.72
2016-04-18T05:47:18.794Z,87.72
2016-04-18T05:48:18.767Z,87.24
2016-04-18T05:49:18.784Z,87.62
2016-04-18T05:50:18.787Z,87.05
2016-04-18T05:51:18.774Z,87.24
2016-04-18T05:52:18.777Z,87.05
2016-04-18T05:53:18.780Z,87.1
2016-04-18T05:54:18.783Z,87.01
2016-04-18T05:55:18.770Z,86.53
2016-04-18T05:56:18.773Z,86.82
2016-04-18T05:57:18.791Z,86.63
2016-04-18T05:58:18.778Z,86.63
2016-04-18T05:59:18.764Z,86.91
2016-04-18T06:00:18.767Z,87.01
2016-04-18T06:01:18.769Z,86.34
2016-04-18T06:02:18.772Z,86.24
2016-04-18T06:03:18.775Z,86.24
2016-04-18T06:04:18.778Z,86.43
2016-04-18T06:05:18.781Z,86.43
2016-04-18T06:06:18.768Z,85.86
2016-04-18T06:07:18.771Z,86.53
2016-04-18T06:08:18.773Z,86.15
2016-04-18T06:09:18.776Z,86.63
2016-04-18T06:10:18.762Z,86.05
2016-04-18T06:11:18.781Z,86.34
2016-04-18T06:12:18.768Z,85.96
2016-04-18T06:13:18.771Z,86.05
2016-04-18T06:14:18.774Z,85.68
2016-04-18T06:15:18.776Z,85.58
2016-04-18T06:16:18.763Z,85.2
2016-04-18T06:17:18.765Z,85.34
2016-04-18T06:18:18.769Z,85.2
2016-04-18T06:19:18.771Z,85.39
2016-04-18T06:20:18.774Z,84.82
2016-04-18T06:21:18.776Z,84.67
2016-04-18T06:22:18.764Z,84.86
2016-04-18T06:23:18.766Z,85.05
2016-04-18T06:24:18.769Z,84.48
2016-04-18T06:25:18.772Z,84.39
2016-04-18T06:26:18.775Z,83.82
2016-04-18T06:27:18.778Z,83.62
2016-04-18T06:28:18.764Z,84.1
2016-04-18T06:29:18.767Z,84.01
2016-04-18T06:30:18.770Z,83.53
2016-04-18T06:31:18.772Z,83.72
2016-04-18T06:32:18.760Z,83.34
2016-04-18T06:33:18.762Z,83.06
2016-04-18T06:34:18.766Z,83.15
2016-04-18T06:35:18.768Z,83.34
2016-04-18T06:36:18.771Z,83.15
2016-04-18T06:37:18.774Z,83.15
2016-04-18T06:38:18.760Z,83.15
2016-04-18T06:39:18.762Z,83.06
2016-04-18T06:40:18.766Z,82.96
2016-04-18T06:41:18.768Z,82.53
2016-04-18T06:42:18.771Z,82.34
2016-04-18T06:43:18.774Z,81.86
2016-04-18T06:44:18.760Z,81.2
2016-04-18T06:45:18.763Z,80.44
2016-04-18T06:46:18.765Z,80.53
2016-04-18T06:47:18.768Z,81.01
2016-04-18T06:48:18.771Z,80.29
2016-04-18T06:49:18.759Z,80.47
2016-04-18T06:50:18.762Z,79.33
2016-04-18T06:51:18.764Z,79.11
2016-04-18T06:52:18.767Z,79.52
2016-04-18T06:53:18.769Z,79.68
2016-04-18T06:54:18.756Z,79.11
2016-04-18T06:55:18.759Z,79.96
2016-04-18T06:56:18.762Z,79.39
2016-04-18T06:57:18.764Z,79.86
2016-04-18T06:58:18.767Z,80.44
2016-04-18T06:59:18.769Z,80.91
2016-04-18T07:00:18.756Z,81.29
2016-04-18T07:01:18.758Z,81.06
2016-04-18T07:02:18.761Z,81.25
2016-04-18T07:03:18.764Z,81.73
2016-04-18T07:04:18.766Z,81.73
2016-04-18T07:05:18.769Z,81.54
2016-04-18T07:06:18.616Z,81.92
2016-04-18T07:07:18.791Z,81.63
2016-04-18T07:08:18.763Z,81.63
2016-04-18T07:09:18.766Z,81.82
2016-04-18T07:10:18.768Z,82.01
2016-04-18T07:11:18.771Z,82.01
2016-04-18T07:12:18.757Z,82.29
2016-04-18T07:13:18.776Z,82.1
2016-04-18T07:14:18.762Z,82.39
2016-04-18T07:15:18.782Z,82.39
2016-04-18T07:16:18.784Z,82.39
2016-04-18T07:17:18.771Z,82.62
2016-04-18T07:18:18.773Z,82.62
2016-04-18T07:19:18.776Z,81.86
2016-04-18T07:20:18.763Z,82.53
2016-04-18T07:21:18.773Z,82.53
2016-04-18T07:22:18.775Z,81.77
2016-04-18T07:23:18.763Z,81.2
2016-04-18T07:24:18.781Z,80.57
2016-04-18T07:25:18.769Z,80.57
2016-04-18T07:26:18.771Z,80.29
2016-04-18T07:27:18.774Z,80.29
2016-04-18T07:28:18.777Z,79.52
2016-04-18T07:29:18.779Z,79.14
2016-04-18T07:30:18.766Z,79.33
2016-04-18T07:31:18.769Z,79.14
2016-04-18T07:32:18.771Z,78.67
2016-04-18T07:33:18.774Z,78.23
2016-04-18T07:34:18.777Z,77.76
2016-04-18T07:35:18.763Z,76.71
2016-04-18T07:36:18.766Z,76.61
2016-04-18T07:37:18.768Z,76.9
2016-04-18T07:38:18.771Z,76.61
2016-04-18T07:39:18.774Z,76.9
2016-04-18T07:40:18.776Z,76.71
2016-04-18T07:41:18.779Z,76.23
2016-04-18T07:42:18.767Z,76.33
2016-04-18T07:43:18.769Z,76.23
2016-04-18T07:44:18.772Z,76.61
2016-04-18T07:45:18.775Z,75.76
2016-04-18T07:46:18.777Z,75.85
2016-04-18T07:47:18.780Z,75.38
2016-04-18T07:48:18.783Z,75.67
2016-04-18T07:49:18.786Z,75.62
2016-04-18T07:50:18.773Z,75.81
2016-04-18T07:51:18.776Z,75.81
2016-04-18T07:52:18.778Z,75.85
2016-04-18T07:53:18.781Z,75.81
2016-04-18T07:54:18.783Z,75.95
2016-04-18T07:55:18.911Z,76.01
2016-04-18T07:56:18.788Z,75.57
2016-04-18T07:57:18.776Z,75.38
2016-04-18T07:58:18.779Z,75.47
2016-04-18T07:59:18.782Z,75.38
2016-04-18T08:00:18.784Z,75.28
2016-04-18T08:01:19.177Z,75.76
2016-04-18T08:02:18.789Z,75.09
2016-04-18T08:03:18.793Z,75.38
2016-04-18T08:04:18.795Z,75.57
2016-04-18T08:05:18.782Z,75.47
2016-04-18T08:06:18.784Z,74.9
2016-04-18T08:07:18.787Z,75.13
2016-04-18T08:08:18.790Z,74.08
2016-04-18T08:09:18.793Z,73.32
2016-04-18T08:10:18.795Z,73.32
2016-04-18T08:11:18.798Z,72.88
2016-04-18T08:12:18.784Z,71.93
2016-04-18T08:13:18.787Z,70.59
2016-04-18T08:14:18.837Z,70.92
2016-04-18T08:15:18.792Z,70.72
2016-04-18T08:16:18.795Z,70.34
2016-04-18T08:17:18.798Z,69.01
2016-04-18T08:18:18.786Z,68.82
2016-04-18T08:19:18.803Z,68.72
2016-04-18T08:20:18.807Z,68.34
2016-04-18T08:21:18.809Z,68.05
2016-04-18T08:22:18.812Z,67.96
2016-04-18T08:23:18.815Z,67.96
2016-04-18T08:24:18.818Z,68.53
2016-04-18T08:25:18.820Z,69.77
2016-04-18T08:26:18.807Z,69.1
2016-04-18T08:27:18.810Z,69.01
2016-04-18T08:28:18.796Z,68.53
2016-04-18T08:29:18.799Z,68.34
2016-04-18T08:30:18.818Z,68.34
2016-04-18T08:31:18.805Z,68.69
2016-04-18T08:32:18.808Z,68.53
2016-04-18T08:33:18.811Z,68.34
2016-04-18T08:34:18.829Z,69.01
2016-04-18T08:35:18.815Z,68.34
2016-04-18T08:36:18.819Z,68.44
2016-04-18T08:37:18.821Z,68.72
2016-04-18T08:38:18.840Z,68.34
2016-04-18T08:39:18.827Z,68.34
2016-04-18T08:40:18.845Z,68.53
2016-04-18T08:41:18.832Z,68.28
2016-04-18T08:42:18.818Z,67.8
2016-04-18T08:43:18.821Z,67.42
2016-04-18T08:44:18.824Z,67.33
2016-04-18T08:45:18.827Z,67.04
2016-04-18T08:46:18.829Z,67.04
2016-04-18T08:47:18.832Z,67.42
2016-04-18T08:48:18.834Z,67.61
2016-04-18T08:49:18.837Z,67.99
2016-04-18T08:50:18.840Z,67.42
2016-04-18T08:51:18.843Z,67.23
2016-04-18T08:52:18.831Z,66.94
2016-04-18T08:53:19.286Z,66.47
2016-04-18T08:54:18.851Z,67.29
2016-04-18T08:55:18.854Z,67.58
2016-04-18T08:56:18.856Z,67.86
2016-04-18T08:57:18.843Z,67.39
2016-04-18T08:58:18.846Z,67.1
2016-04-18T08:59:18.849Z,67.2
2016-04-18T09:00:18.851Z,68.02
2016-04-18T09:01:18.855Z,68.4
2016-04-18T09:02:18.841Z,68.78
2016-04-18T09:03:18.844Z,69.35
2016-04-18T09:04:18.846Z,70.27
2016-04-18T09:05:18.850Z,69.83
2016-04-18T09:06:18.852Z,70.21
2016-04-18T09:07:18.855Z,70.56
2016-04-18T09:08:18.858Z,70.37
2016-04-18T09:09:18.861Z,70.56
2016-04-18T09:10:18.862Z,71.32
2016-04-18T09:11:18.865Z,71.07
2016-04-18T09:12:18.869Z,71.55
2016-04-18T09:13:18.855Z,71.45
2016-04-18T09:14:18.859Z,71.64
2016-04-18T09:15:18.861Z,70.44
2016-04-18T09:16:18.864Z,68.72
2016-04-18T09:17:18.866Z,68.34
2016-04-18T09:18:18.869Z,67.96
2016-04-18T09:19:18.872Z,68.05
2016-04-18T09:20:18.875Z,67.96
2016-04-18T09:21:18.902Z,67.86
2016-04-18T09:22:18.947Z,67.86
2016-04-18T09:23:18.992Z,68.05
2016-04-18T09:24:19.037Z,68.24
2016-04-18T09:25:19.095Z,67.77
2016-04-18T09:26:19.093Z,67.29
2016-04-18T09:27:19.111Z,67.1
2016-04-18T09:28:19.146Z,67.48
2016-04-18T09:29:19.147Z,67.96
2016-04-18T09:30:19.166Z,67.86
2016-04-18T09:31:19.178Z,67.2
2016-04-18T09:32:19.186Z,67.29
2016-04-18T09:33:19.193Z,67.68
2016-04-18T09:34:19.185Z,67.96
2016-04-18T09:35:19.194Z,67.68
2016-04-18T09:36:19.216Z,67.86
2016-04-18T09:37:19.204Z,68.3
2016-04-18T09:38:19.226Z,68.69
2016-04-18T09:39:19.213Z,69.54
2016-04-18T09:40:19.218Z,70.56
2016-04-18T09:41:19.222Z,70.94
2016-04-18T09:42:19.226Z,71.22
2016-04-18T09:43:19.229Z,71.61
2016-04-18T09:44:19.232Z,72.27
2016-04-18T09:45:19.221Z,72.37
2016-04-18T09:46:19.239Z,72.17
2016-04-18T09:47:19.242Z,70.84
2016-04-18T09:48:19.245Z,70.65
2016-04-18T09:49:19.232Z,70.56
2016-04-18T09:50:19.249Z,70.47
2016-04-18T09:51:19.237Z,70.37
2016-04-18T09:52:19.240Z,70.84
2016-04-18T09:53:19.242Z,71.32
2016-04-18T09:54:19.245Z,71.03
2016-04-18T09:55:19.248Z,69.83
2016-04-18T09:56:19.251Z,69.64
2016-04-18T09:57:19.254Z,69.93
2016-04-18T09:58:19.256Z,70.06
2016-04-18T09:59:19.259Z,68.82
2016-04-18T10:00:19.262Z,68.72
2016-04-18T10:01:19.248Z,67.96
2016-04-18T10:02:19.251Z,67.86
2016-04-18T10:03:19.253Z,68.15
2016-04-18T10:04:19.256Z,67.68
2016-04-18T10:05:19.259Z,67.86
2016-04-18T10:06:19.278Z,68.59
2016-04-18T10:07:19.265Z,68.78
2016-04-18T10:08:19.267Z,69.35
2016-04-18T10:09:19.270Z,69.83
2016-04-18T10:10:19.273Z,70.31
2016-04-18T10:11:19.275Z,70.69
2016-04-18T10:12:19.262Z,70.5
2016-04-18T10:13:19.268Z,70.02
2016-04-18T10:14:19.270Z,69.54
2016-04-18T10:15:19.273Z,68.59
2016-04-18T10:16:19.276Z,68.59
2016-04-18T10:17:19.279Z,68.88
2016-04-18T10:18:19.281Z,69.64
2016-04-18T10:19:19.283Z,69.07
2016-04-18T10:20:19.286Z,68.59
2016-04-18T10:21:19.289Z,68.78
2016-04-18T10:22:19.277Z,68.4
2016-04-18T10:23:19.279Z,69.17
2016-04-18T10:24:19.282Z,68.88
2016-04-18T10:25:19.285Z,68.05
2016-04-18T10:26:19.302Z,68.05
2016-04-18T10:27:19.305Z,67
2016-04-18T10:28:19.465Z,66.38
2016-04-18T10:29:19.296Z,65.89
2016-04-18T10:30:19.298Z,65.33
2016-04-18T10:31:19.301Z,64.94
2016-04-18T10:32:19.303Z,63.6
2016-04-18T10:33:19.306Z,63.73
2016-04-18T10:34:19.309Z,62.78
2016-04-18T10:35:19.343Z,61.83
2016-04-18T10:36:19.299Z,61.1
2016-04-18T10:37:19.317Z,60.81
2016-04-18T10:38:19.304Z,60.33
2016-04-18T10:39:19.306Z,59.38
2016-04-18T10:40:19.326Z,59.28
2016-04-18T10:41:19.311Z,59.09
2016-04-18T10:42:19.345Z,59.76
2016-04-18T10:43:19.317Z,59.76
2016-04-18T10:44:19.320Z,59.19
2016-04-18T10:45:19.338Z,59.19
2016-04-18T10:46:19.326Z,58.64
2016-04-18T10:47:19.328Z,58.45
2016-04-18T10:48:19.519Z,58.36
2016-04-18T10:49:19.334Z,57.4
2016-04-18T10:50:19.337Z,55.13
2016-04-18T10:51:19.338Z,54.94
2016-04-18T10:52:19.357Z,55.42
2016-04-18T10:53:19.344Z,56.45
2016-04-18T10:54:19.347Z,57.11
2016-04-18T10:55:19.349Z,57.02
2016-04-18T10:56:20.680Z,56.18
2016-04-18T10:57:19.340Z,55.3
2016-04-18T10:58:19.342Z,55.32
2016-04-18T10:59:19.361Z,56.18
2016-04-18T11:00:19.363Z,55.32
2016-04-18T11:01:19.366Z,54.75
2016-04-18T11:02:19.368Z,54.18
2016-04-18T11:03:19.356Z,54.34
2016-04-18T11:04:19.358Z,54.47
2016-04-18T11:05:19.361Z,55.4
2016-04-18T11:06:19.364Z,55.77
2016-04-18T11:07:19.366Z,56.51
2016-04-18T11:08:19.384Z,57.46
2016-04-18T11:09:19.372Z,57.56
2016-04-18T11:10:19.375Z,58.58
2016-04-18T11:11:19.377Z,58.87
2016-04-18T11:12:19.395Z,58.11
2016-04-18T11:13:19.383Z,58.58
2016-04-18T11:14:19.385Z,58.61
2016-04-18T11:15:19.389Z,57.85
2016-04-18T11:16:19.391Z,57.65
2016-04-18T11:17:19.394Z,56.99
2016-04-18T11:18:19.396Z,56.6
2016-04-18T11:19:19.414Z,56.89
2016-04-18T11:20:19.402Z,58.04
2016-04-18T11:21:19.419Z,58.23
2016-04-18T11:22:19.423Z,58.61
2016-04-18T11:23:19.410Z,58.58
2016-04-18T11:24:19.428Z,58.51
2016-04-18T11:25:19.415Z,59.34
2016-04-18T11:26:19.418Z,60.39
2016-04-18T11:27:19.420Z,59.82
2016-04-18T11:28:19.424Z,59.95
2016-04-18T11:29:19.426Z,60.78
2016-04-18T11:30:19.428Z,61.16
2016-04-18T11:31:19.431Z,61.83
2016-04-18T11:32:19.434Z,61.83
2016-04-18T11:33:19.437Z,61.83
2016-04-18T11:34:19.440Z,60.87
2016-04-18T11:35:19.442Z,59.34
2016-04-18T11:36:19.444Z,59.44
2016-04-18T11:37:19.462Z,60.02
2016-04-18T11:38:19.465Z,60.33
2016-04-18T11:39:19.453Z,59.85
2016-04-18T11:40:19.471Z,58.99
2016-04-18T11:41:19.458Z,57.75
2016-04-18T11:42:19.461Z,57.78
2016-04-18T11:43:19.463Z,58.07
2016-04-18T11:44:19.466Z,58.07
2016-04-18T11:45:19.469Z,58.45
2016-04-18T11:46:19.472Z,58.26
2016-04-18T11:47:19.474Z,57.78
2016-04-18T11:48:19.477Z,58.26
2016-04-18T11:49:19.480Z,58.51
2016-04-18T11:50:19.482Z,58.7
2016-04-18T11:51:19.485Z,57.37
2016-04-18T11:52:19.488Z,57.56
2016-04-18T11:53:19.491Z,57.56
2016-04-18T11:54:19.509Z,57.85
2016-04-18T11:55:19.527Z,57.94
2016-04-18T11:56:19.499Z,57.94
2016-04-18T11:57:19.516Z,57.11
2016-04-18T11:58:19.535Z,56.06
2016-04-18T11:59:19.506Z,56.06
2016-04-18T12:00:19.509Z,56.92
2016-04-18T12:01:19.512Z,57.21
2016-04-18T12:02:19.515Z,56.92
2016-04-18T12:03:19.517Z,56.92
2016-04-18T12:04:19.521Z,55.96
2016-04-18T12:05:19.537Z,55.4
2016-04-18T12:06:19.525Z,55.3
2016-04-18T12:07:19.528Z,56.51
2016-04-18T12:08:19.531Z,57.37
